createdAt,value
2022-10-04T00:08:50.636Z,74892.50
2022-10-04T00:19:14.906Z,74884.41
2022-10-04T00:29:29.044Z,74872.28
2022-10-04T00:39:38.747Z,74870.25
2022-10-04T00:49:43.195Z,74876.31
2022-10-04T00:59:48.795Z,74886.44
2022-10-04T01:10:01.352Z,74882.41
2022-10-04T01:20:03.425Z,74868.22
2022-10-04T01:30:17.936Z,74876.31
2022-10-04T01:40:20.147Z,74880.38
2022-10-04T01:50:41.192Z,74886.44
2022-10-04T02:00:48.390Z,74884.41
2022-10-04T02:10:56.152Z,74896.56
2022-10-04T02:20:58.538Z,74910.72
2022-10-04T02:31:22.659Z,74902.63
2022-10-04T02:41:45.020Z,74900.59
2022-10-04T02:51:55.435Z,74914.78
2022-10-04T03:02:00.479Z,74896.56
2022-10-04T03:12:04.745Z,74884.41
2022-10-04T03:22:11.955Z,74898.59
2022-10-04T03:32:19.215Z,74890.50
2022-10-04T03:42:27.836Z,74886.44
2022-10-04T03:52:35.113Z,74898.59
2022-10-04T04:02:51.931Z,74884.41
2022-10-04T04:13:01.558Z,74868.22
2022-10-04T04:23:18.216Z,74868.22
2022-10-04T04:33:44.223Z,74872.28
2022-10-04T04:43:49.095Z,74876.31
2022-10-04T04:53:59.591Z,74882.41
2022-10-04T05:04:07.151Z,74886.44
2022-10-04T05:14:14.720Z,74892.50
2022-10-04T05:24:25.237Z,74900.59
2022-10-04T05:34:30.945Z,74900.59
2022-10-04T05:44:55.881Z,74904.66
2022-10-04T05:55:12.416Z,74892.50
2022-10-04T06:05:29.343Z,74888.47
2022-10-04T06:16:05.171Z,74866.22
2022-10-04T06:26:12.348Z,74841.94
2022-10-04T06:36:42.945Z,74837.88
2022-10-04T06:46:58.643Z,74829.78
2022-10-04T06:57:19.551Z,74835.84
2022-10-04T07:07:42.169Z,74833.84
2022-10-04T07:17:53.299Z,74835.84
2022-10-04T07:28:24.175Z,74823.72
2022-10-04T07:38:28.525Z,74797.41
2022-10-04T07:48:32.820Z,74787.28
2022-10-04T07:59:08.427Z,74761.00
2022-10-04T08:09:22.014Z,74740.75
2022-10-04T08:19:33.447Z,74726.59
2022-10-04T08:29:48.764Z,74714.47
2022-10-04T08:40:13.238Z,74682.09
2022-10-04T08:50:21.670Z,74657.81
2022-10-04T09:00:45.820Z,74698.28
2022-10-04T09:11:27.870Z,74659.81
2022-10-04T09:22:06.218Z,74645.66
2022-10-04T09:32:29.207Z,74651.75
2022-10-04T09:43:04.979Z,74667.91
2022-10-04T09:53:28.367Z,74686.13
2022-10-04T10:03:30.448Z,74710.41
2022-10-04T10:14:02.851Z,74710.41
2022-10-04T10:24:47.684Z,74657.81
2022-10-04T10:35:16.197Z,74674.00
2022-10-04T10:45:45.929Z,74635.56
2022-10-04T10:56:30.446Z,74611.28
2022-10-04T11:07:06.448Z,74617.34
2022-10-04T11:17:31.088Z,74609.25
2022-10-04T11:27:48.968Z,74645.66
2022-10-04T11:38:04.325Z,74625.44
2022-10-04T11:48:36.484Z,74633.53
2022-10-04T11:58:55.831Z,74641.63
2022-10-04T12:09:05.147Z,74615.31
2022-10-04T12:19:32.412Z,74641.63
2022-10-04T12:29:41.273Z,74641.63
2022-10-04T12:40:02.836Z,74621.38
2022-10-04T12:50:22.538Z,74635.56
2022-10-04T13:00:25.914Z,74661.84
2022-10-04T13:10:46.187Z,74671.97
2022-10-04T13:21:10.318Z,74661.84
2022-10-04T13:31:35.989Z,74667.91
2022-10-04T13:42:16.923Z,74674.00
2022-10-04T13:53:06.067Z,74671.97
2022-10-04T14:03:40.332Z,74710.41
2022-10-04T14:14:15.637Z,74726.59
2022-10-04T14:24:19.032Z,74736.72
2022-10-04T14:34:58.700Z,74742.78
2022-10-04T14:45:26.376Z,74761.00
2022-10-04T14:56:09.572Z,74783.25
2022-10-04T15:06:43.722Z,74799.44
2022-10-04T15:17:02.771Z,74815.63
2022-10-04T15:27:31.857Z,74835.84
2022-10-04T15:37:45.964Z,74841.94
2022-10-04T15:48:38.952Z,74888.47
2022-10-04T15:58:59.441Z,74928.94
2022-10-04T16:09:23.763Z,74945.13
2022-10-04T16:19:37.416Z,74981.53
2022-10-04T16:30:25.619Z,74999.75
2022-10-04T16:40:36.120Z,75034.16
2022-10-04T16:50:58.616Z,75064.50
2022-10-04T17:01:29.825Z,75092.84
2022-10-04T17:11:42.249Z,75121.16
2022-10-04T17:21:46.631Z,75141.41
2022-10-04T17:31:58.932Z,75155.56
2022-10-04T17:42:07.971Z,75167.69
2022-10-04T17:52:52.832Z,75183.88
2022-10-04T18:03:19.856Z,75198.06
2022-10-04T18:13:27.652Z,75214.25
2022-10-04T18:23:37.083Z,75238.53
2022-10-04T18:33:57.628Z,75256.75
2022-10-04T18:44:01.188Z,75276.97
2022-10-04T18:54:28.133Z,75305.31
2022-10-04T19:04:58.084Z,75329.59
2022-10-04T19:15:05.782Z,75335.66
2022-10-04T19:26:30.021Z,75353.88
2022-10-04T19:36:32.735Z,75378.16
2022-10-04T19:46:39.333Z,75384.22
2022-10-04T19:56:49.886Z,75404.47
2022-10-04T20:06:56.349Z,75414.56
2022-10-04T20:17:00.299Z,75436.84
2022-10-04T20:27:11.471Z,75442.91
2022-10-04T20:37:19.480Z,75463.16
2022-10-04T20:47:38.336Z,75475.28
2022-10-04T20:57:42.658Z,75487.44
2022-10-04T21:07:46.913Z,75503.63
2022-10-04T21:18:09.827Z,75507.66
2022-10-04T21:28:25.207Z,75521.84
2022-10-04T21:38:29.509Z,75527.91
2022-10-04T21:48:34.945Z,75523.84
2022-10-04T21:58:40.569Z,75519.81
2022-10-04T22:08:45.641Z,75523.84
2022-10-04T22:18:50.216Z,75536.00
2022-10-04T22:28:56.220Z,75538.03
2022-10-04T22:39:01.290Z,75564.34
2022-10-04T22:49:10.961Z,75576.47
2022-10-04T22:59:19.635Z,75574.44
2022-10-04T23:09:24.001Z,75572.44
2022-10-04T23:19:28.485Z,75562.31
2022-10-04T23:29:32.501Z,75566.34
2022-10-04T23:39:41.665Z,75554.22
2022-10-04T23:49:48.442Z,75546.13
2022-10-04T23:59:53.527Z,75550.16
